New Hope, Indiana
Current Conditions -  °F | °C
As of 2:53 AM on Wednesday 22 Oct 2014 (Local Time) from KBMG Reporting Station
Clear Clear  
Wind Chill: 39°   Ceiling: Unl
Heat Index: 39°   Visibility: 10mi
Dew Point: 38°   Wind: 3mph
Humidity: 96%   Direction: 20°NNE
Pressure: 30.22"   Gusts: NA
Location:  39.3008°N, 86.8112°W
Report Text: KBMG 220653Z AUTO 02003KT 10SM CLR 04/03 A3022 RMK AO2 SLP233 T00390033 $
Loading
Personal Weather Stations






























Interactive Weather Map
Tropical Storm Tracking
New forecast layout! Learn more

10-Day Weather Forecast

Advertisements
Track Severe Weather on mobile